Time;durP1;ratioP1;P1;durP2;ratioP2;P2;SDS_P1;SDS_P2;PMS_P1;PMS_P2;Temp;Humidity;BMP_temperature;BMP_pressure;BME280_temperature;BME280_humidity;BME280_pressure;Samples;Min_cycle;Max_cycle;Signal;HPM_P1;HPM_P2
2023/07/15 00:01:24;;;;;;;8.13;4.22;;;;;;;;;;5115192;27;20055;-64
2023/07/15 00:03:51;;;;;;;8.90;4.50;;;;;;;;;;5112490;28;20044;-63
2023/07/15 00:06:18;;;;;;;10.13;4.75;;;;;;;;;;5114083;28;20058;-64
2023/07/15 00:08:45;;;;;;;8.73;5.10;;;;;;;;;;5112931;27;20108;-64
2023/07/15 00:11:20;;;;;;;8.32;4.53;;;;;;;;;;5109756;28;20073;-63
2023/07/15 00:13:47;;;;;;;7.72;4.10;;;;;;;;;;5114171;27;20118;-64
2023/07/15 00:16:13;;;;;;;7.15;3.83;;;;;;;;;;5113870;28;20042;-64
2023/07/15 00:18:39;;;;;;;9.93;4.43;;;;;;;;;;5112243;27;20090;-63
2023/07/15 00:21:20;;;;;;;8.05;3.92;;;;;;;;;;5112325;27;20370;-64
2023/07/15 00:23:46;;;;;;;10.57;3.80;;;;;;;;;;5112345;28;20221;-64
2023/07/15 00:26:13;;;;;;;8.27;3.95;;;;;;;;;;5113337;28;20108;-63
2023/07/15 00:28:39;;;;;;;8.63;4.25;;;;;;;;;;5112150;27;20103;-63
2023/07/15 00:31:11;;;;;;;8.27;4.22;;;;;;;;;;5113866;27;20491;-64
2023/07/15 00:33:37;;;;;;;9.50;4.40;;;;;;;;;;5114459;27;20047;-64
2023/07/15 00:36:04;;;;;;;6.00;3.55;;;;;;;;;;5116215;27;20043;-64
2023/07/15 00:38:30;;;;;;;9.70;4.38;;;;;;;;;;5111367;27;20055;-64
2023/07/15 00:40:56;;;;;;;7.93;3.45;;;;;;;;;;5116943;27;20055;-64
2023/07/15 00:43:41;;;;;;;6.95;3.83;;;;;;;;;;5112125;27;20451;-64
2023/07/15 00:46:28;;;;;;;12.10;3.97;;;;;;;;;;5112155;28;20046;-64
2023/07/15 00:49:00;;;;;;;7.32;3.80;;;;;;;;;;5107450;27;20067;-64
2023/07/15 00:51:27;;;;;;;8.32;4.50;;;;;;;;;;5099352;28;20043;-64
2023/07/15 00:53:54;;;;;;;7.20;3.85;;;;;;;;;;5112915;27;20089;-63
2023/07/15 00:56:20;;;;;;;7.45;3.50;;;;;;;;;;5113532;27;20055;-63
2023/07/15 00:58:47;;;;;;;6.60;3.70;;;;;;;;;;5114443;27;20468;-64
2023/07/15 01:01:13;;;;;;;6.90;3.65;;;;;;;;;;5112482;27;20058;-64
2023/07/15 01:03:40;;;;;;;7.57;3.35;;;;;;;;;;5112548;27;20047;-64
2023/07/15 01:06:09;;;;;;;7.80;3.72;;;;;;;;;;5112286;28;20090;-64
2023/07/15 01:08:35;;;;;;;6.78;3.55;;;;;;;;;;5113698;27;20044;-64
2023/07/15 01:11:01;;;;;;;8.32;3.88;;;;;;;;;;5113372;28;20114;-64
2023/07/15 01:13:27;;;;;;;8.70;3.60;;;;;;;;;;5112693;27;20491;-64
2023/07/15 01:15:54;;;;;;;8.00;3.78;;;;;;;;;;5113495;27;20395;-64
2023/07/15 01:18:20;;;;;;;7.68;3.60;;;;;;;;;;5113776;27;20041;-64
2023/07/15 01:20:47;;;;;;;10.60;4.32;;;;;;;;;;5111487;28;20459;-64
2023/07/15 01:23:13;;;;;;;9.45;3.58;;;;;;;;;;5111551;27;20058;-64
2023/07/15 01:25:40;;;;;;;7.20;3.20;;;;;;;;;;5112960;28;20126;-63
2023/07/15 01:28:06;;;;;;;6.10;3.50;;;;;;;;;;5112231;27;20046;-64
2023/07/15 01:30:32;;;;;;;9.20;3.33;;;;;;;;;;5112407;28;20083;-63
2023/07/15 01:32:58;;;;;;;7.00;3.38;;;;;;;;;;5113096;27;20035;-63
2023/07/15 01:35:24;;;;;;;6.00;2.97;;;;;;;;;;5110762;28;20044;-63
2023/07/15 01:37:51;;;;;;;6.45;3.10;;;;;;;;;;5115463;27;20494;-63
2023/07/15 01:40:17;;;;;;;8.18;3.10;;;;;;;;;;5111388;28;20119;-64
2023/07/15 01:42:43;;;;;;;7.38;3.53;;;;;;;;;;5112451;28;20397;-64
2023/07/15 01:45:10;;;;;;;9.82;2.95;;;;;;;;;;5111758;28;20035;-64
2023/07/15 01:47:36;;;;;;;7.80;3.22;;;;;;;;;;5111859;28;20045;-63
2023/07/15 01:50:05;;;;;;;8.73;3.05;;;;;;;;;;5111048;28;20048;-64
2023/07/15 01:52:31;;;;;;;8.52;3.13;;;;;;;;;;5112322;28;20461;-64
2023/07/15 01:54:58;;;;;;;10.60;3.80;;;;;;;;;;5112392;27;20051;-64
2023/07/15 01:57:26;;;;;;;5.40;3.13;;;;;;;;;;5111436;27;20051;-64
2023/07/15 01:59:57;;;;;;;9.73;3.75;;;;;;;;;;5112858;28;20407;-63
2023/07/15 02:02:26;;;;;;;5.80;3.22;;;;;;;;;;5110902;28;20051;-63
2023/07/15 02:04:52;;;;;;;8.50;2.58;;;;;;;;;;5111257;28;20581;-64
2023/07/15 02:07:19;;;;;;;11.13;3.15;;;;;;;;;;5113197;27;20036;-64
2023/07/15 02:09:45;;;;;;;5.30;2.90;;;;;;;;;;5111170;28;20044;-64
2023/07/15 02:12:11;;;;;;;6.32;3.28;;;;;;;;;;5105494;28;20097;-64
2023/07/15 02:14:37;;;;;;;5.80;2.78;;;;;;;;;;5112994;28;20040;-64
2023/07/15 02:17:04;;;;;;;6.45;2.60;;;;;;;;;;5127826;27;20173;-64
2023/07/15 02:19:33;;;;;;;6.10;2.60;;;;;;;;;;5111164;28;20051;-64
2023/07/15 02:22:00;;;;;;;7.55;3.13;;;;;;;;;;5111102;28;20438;-64
2023/07/15 02:24:26;;;;;;;6.10;2.67;;;;;;;;;;5125234;27;20043;-62
2023/07/15 02:26:52;;;;;;;6.45;2.55;;;;;;;;;;5112027;28;20050;-64
2023/07/15 02:29:19;;;;;;;6.75;2.63;;;;;;;;;;5111761;27;20503;-63
2023/07/15 02:31:45;;;;;;;7.50;3.00;;;;;;;;;;5109669;28;20067;-64
2023/07/15 02:34:13;;;;;;;4.70;2.55;;;;;;;;;;5110133;28;20036;-63
2023/07/15 02:36:39;;;;;;;8.20;2.70;;;;;;;;;;5110290;28;20048;-64
2023/07/15 02:39:05;;;;;;;5.88;2.72;;;;;;;;;;5112944;27;20073;-64
2023/07/15 02:41:32;;;;;;;11.57;3.67;;;;;;;;;;5110812;28;20040;-63
2023/07/15 02:43:59;;;;;;;9.82;2.90;;;;;;;;;;5109247;28;20055;-64
2023/07/15 02:46:25;;;;;;;7.22;2.50;;;;;;;;;;5112232;28;20056;-64
2023/07/15 02:48:51;;;;;;;6.00;2.67;;;;;;;;;;5112231;28;20051;-64
2023/07/15 02:51:19;;;;;;;7.43;2.70;;;;;;;;;;5110695;28;20058;-63
2023/07/15 02:53:47;;;;;;;7.88;3.13;;;;;;;;;;5110544;28;20036;-63
2023/07/15 02:56:14;;;;;;;5.97;2.83;;;;;;;;;;5112448;28;20123;-63
2023/07/15 02:58:43;;;;;;;7.25;2.72;;;;;;;;;;5108675;28;20114;-64
2023/07/15 03:01:10;;;;;;;9.85;2.88;;;;;;;;;;5109001;28;20119;-64
2023/07/15 03:03:37;;;;;;;6.68;3.10;;;;;;;;;;5110910;28;20441;-63
2023/07/15 03:06:03;;;;;;;7.80;2.90;;;;;;;;;;5110295;28;20040;-64
2023/07/15 03:08:29;;;;;;;5.78;2.90;;;;;;;;;;5114524;28;20475;-64
2023/07/15 03:10:56;;;;;;;10.38;3.17;;;;;;;;;;5112117;28;20441;-63
2023/07/15 03:13:25;;;;;;;10.35;2.92;;;;;;;;;;5109860;28;20359;-63
2023/07/15 03:15:53;;;;;;;5.57;2.90;;;;;;;;;;5110367;28;20071;-63
2023/07/15 03:18:21;;;;;;;9.90;3.00;;;;;;;;;;5118895;28;20516;-63
2023/07/15 03:20:47;;;;;;;7.20;2.85;;;;;;;;;;5111094;28;20399;-64
2023/07/15 03:23:13;;;;;;;8.65;2.83;;;;;;;;;;5110917;28;20044;-63
2023/07/15 03:25:40;;;;;;;7.88;3.35;;;;;;;;;;5111274;28;20093;-64
2023/07/15 03:28:06;;;;;;;6.88;2.78;;;;;;;;;;5106942;28;20076;-64
2023/07/15 03:30:32;;;;;;;5.60;3.00;;;;;;;;;;5114859;28;20428;-64
2023/07/15 03:32:58;;;;;;;9.35;3.10;;;;;;;;;;5110140;28;20040;-64
2023/07/15 03:35:25;;;;;;;6.30;3.22;;;;;;;;;;5111004;28;20050;-64
2023/07/15 03:37:51;;;;;;;7.13;3.03;;;;;;;;;;5110985;28;20117;-63
2023/07/15 03:40:17;;;;;;;7.78;3.13;;;;;;;;;;5110537;28;20035;-63
2023/07/15 03:42:43;;;;;;;6.70;3.50;;;;;;;;;;5112587;27;20125;-63
2023/07/15 03:45:10;;;;;;;7.55;3.60;;;;;;;;;;5114010;27;20437;-63
2023/07/15 03:47:36;;;;;;;7.88;3.35;;;;;;;;;;5113123;27;20039;-63
2023/07/15 03:50:04;;;;;;;6.90;3.35;;;;;;;;;;5117663;27;20062;-63
2023/07/15 03:52:30;;;;;;;6.18;3.28;;;;;;;;;;5114926;27;20413;-64
2023/07/15 03:54:57;;;;;;;8.70;3.38;;;;;;;;;;5108708;28;20039;-63
2023/07/15 03:57:23;;;;;;;7.43;3.30;;;;;;;;;;5115269;28;20043;-63
2023/07/15 03:59:49;;;;;;;8.05;3.47;;;;;;;;;;5114575;27;20039;-64
2023/07/15 04:02:16;;;;;;;8.25;3.05;;;;;;;;;;5112935;28;20355;-64
2023/07/15 04:04:43;;;;;;;10.27;3.75;;;;;;;;;;5114285;27;20123;-64
2023/07/15 04:07:09;;;;;;;9.70;3.25;;;;;;;;;;5114519;27;20032;-63
2023/07/15 04:09:38;;;;;;;7.60;3.78;;;;;;;;;;5113009;27;20059;-63
2023/07/15 04:12:06;;;;;;;8.88;3.90;;;;;;;;;;5114017;27;20383;-64
2023/07/15 04:14:32;;;;;;;7.47;3.25;;;;;;;;;;5115119;27;20051;-63
2023/07/15 04:16:59;;;;;;;7.50;3.67;;;;;;;;;;5113137;28;20040;-63
2023/07/15 04:19:25;;;;;;;6.25;3.33;;;;;;;;;;5114672;27;20181;-63
2023/07/15 04:21:51;;;;;;;8.07;3.65;;;;;;;;;;5113567;27;20042;-64
2023/07/15 04:24:17;;;;;;;10.10;4.05;;;;;;;;;;5112885;27;20044;-63
2023/07/15 04:26:45;;;;;;;8.23;3.42;;;;;;;;;;5113145;28;20115;-63
2023/07/15 04:29:11;;;;;;;10.55;4.03;;;;;;;;;;5106916;27;20106;-63
2023/07/15 04:31:38;;;;;;;6.05;3.88;;;;;;;;;;5112182;27;20035;-63
2023/07/15 04:34:04;;;;;;;12.40;4.53;;;;;;;;;;5113514;28;20044;-64
2023/07/15 04:36:31;;;;;;;8.45;3.72;;;;;;;;;;5111674;27;20139;-63
2023/07/15 04:38:57;;;;;;;6.55;3.92;;;;;;;;;;5112008;27;20448;-63
2023/07/15 04:41:23;;;;;;;9.00;4.55;;;;;;;;;;5103983;27;20044;-63
2023/07/15 04:43:49;;;;;;;8.88;4.18;;;;;;;;;;5111606;28;20463;-63
2023/07/15 04:46:16;;;;;;;8.80;4.00;;;;;;;;;;5112897;27;20402;-63
2023/07/15 04:48:43;;;;;;;8.70;4.00;;;;;;;;;;5113852;27;20055;-64
2023/07/15 04:51:09;;;;;;;8.93;3.50;;;;;;;;;;5112481;27;20075;-64
2023/07/15 04:53:42;;;;;;;7.57;4.15;;;;;;;;;;5117619;27;20044;-63
2023/07/15 04:56:09;;;;;;;12.35;4.70;;;;;;;;;;5114095;28;20035;-63
2023/07/15 04:58:35;;;;;;;10.63;4.18;;;;;;;;;;5111009;28;20086;-64
2023/07/15 05:01:02;;;;;;;7.97;4.22;;;;;;;;;;5111907;28;20543;-64
2023/07/15 05:03:28;;;;;;;8.63;4.22;;;;;;;;;;5114962;27;20088;-63
2023/07/15 05:05:54;;;;;;;13.10;4.38;;;;;;;;;;5109387;27;20039;-63
2023/07/15 05:08:23;;;;;;;9.63;4.78;;;;;;;;;;5113178;27;20520;-63
2023/07/15 05:10:51;;;;;;;10.63;4.82;;;;;;;;;;5112683;28;20410;-63
2023/07/15 05:13:18;;;;;;;6.80;3.97;;;;;;;;;;5113036;27;20047;-63
2023/07/15 05:15:44;;;;;;;9.35;4.47;;;;;;;;;;5113475;28;20096;-63
2023/07/15 05:18:10;;;;;;;10.38;5.03;;;;;;;;;;5113489;27;20379;-63
2023/07/15 05:20:37;;;;;;;7.65;4.30;;;;;;;;;;5112889;28;20476;-64
2023/07/15 05:23:04;;;;;;;11.70;4.72;;;;;;;;;;5109686;27;20143;-63
2023/07/15 05:25:30;;;;;;;9.40;4.32;;;;;;;;;;5112867;28;20375;-63
2023/07/15 05:27:57;;;;;;;7.95;4.18;;;;;;;;;;5111408;27;20437;-62
2023/07/15 05:30:23;;;;;;;7.63;4.90;;;;;;;;;;5110850;28;20161;-63
2023/07/15 05:32:50;;;;;;;11.57;4.20;;;;;;;;;;5111890;28;20057;-63
2023/07/15 05:35:16;;;;;;;12.23;4.85;;;;;;;;;;5113521;28;20036;-63
2023/07/15 05:37:42;;;;;;;7.05;4.38;;;;;;;;;;5113564;28;20094;-63
2023/07/15 05:40:12;;;;;;;7.20;4.55;;;;;;;;;;5106864;28;20502;-63
2023/07/15 05:42:38;;;;;;;11.05;4.93;;;;;;;;;;5104587;27;20043;-63
2023/07/15 05:45:05;;;;;;;11.65;5.05;;;;;;;;;;5113033;28;20048;-64
2023/07/15 05:47:31;;;;;;;7.28;4.50;;;;;;;;;;5103437;28;20539;-60
2023/07/15 05:49:57;;;;;;;11.20;5.60;;;;;;;;;;5103216;28;20388;-64
2023/07/15 05:52:23;;;;;;;12.90;5.20;;;;;;;;;;5137488;27;20566;-64
2023/07/15 05:54:51;;;;;;;8.43;4.43;;;;;;;;;;5097510;28;20782;-64
2023/07/15 05:57:17;;;;;;;8.15;5.30;;;;;;;;;;5105175;27;20379;-64
2023/07/15 05:59:43;;;;;;;10.18;5.28;;;;;;;;;;5109873;27;20047;-64
2023/07/15 06:02:09;;;;;;;9.60;5.00;;;;;;;;;;5105075;28;20083;-64
2023/07/15 06:04:36;;;;;;;10.00;5.05;;;;;;;;;;5108150;27;20040;-64
2023/07/15 06:07:02;;;;;;;11.00;4.70;;;;;;;;;;5102141;28;20492;-64
2023/07/15 06:09:28;;;;;;;9.52;4.82;;;;;;;;;;5101005;28;20090;-63
2023/07/15 06:11:55;;;;;;;8.25;4.28;;;;;;;;;;5104655;27;20131;-64
2023/07/15 06:14:21;;;;;;;9.77;4.78;;;;;;;;;;5102147;28;20067;-64
2023/07/15 06:16:47;;;;;;;9.10;4.57;;;;;;;;;;5100606;28;20566;-64
2023/07/15 06:19:13;;;;;;;8.38;4.20;;;;;;;;;;5099398;27;20039;-63
2023/07/15 06:21:41;;;;;;;8.82;4.30;;;;;;;;;;5101170;28;20043;-64
2023/07/15 06:24:07;;;;;;;7.85;3.97;;;;;;;;;;5083126;28;20045;-63
2023/07/15 06:26:34;;;;;;;7.43;3.85;;;;;;;;;;5107743;28;20039;-64
2023/07/15 06:29:00;;;;;;;6.20;3.50;;;;;;;;;;5107242;27;20044;-63
2023/07/15 06:31:29;;;;;;;6.57;3.17;;;;;;;;;;5100197;27;20103;-63
2023/07/15 06:33:55;;;;;;;7.35;2.63;;;;;;;;;;5107350;28;20475;-64
2023/07/15 06:36:22;;;;;;;4.53;1.95;;;;;;;;;;5111491;28;20039;-64
2023/07/15 06:38:48;;;;;;;8.68;2.63;;;;;;;;;;5110594;28;20084;-64
2023/07/15 06:41:14;;;;;;;7.03;2.80;;;;;;;;;;5112281;28;20051;-64
2023/07/15 06:43:40;;;;;;;4.60;2.13;;;;;;;;;;5111502;28;20451;-64
2023/07/15 06:46:07;;;;;;;5.82;2.05;;;;;;;;;;5112256;28;20035;-75
2023/07/15 06:48:33;;;;;;;4.25;1.98;;;;;;;;;;5109241;28;20074;-65
2023/07/15 06:50:59;;;;;;;4.10;1.52;;;;;;;;;;5111204;28;20055;-65
2023/07/15 06:53:25;;;;;;;4.97;1.73;;;;;;;;;;5112167;28;20090;-64
2023/07/15 06:55:52;;;;;;;3.05;1.38;;;;;;;;;;5112396;28;20066;-64
2023/07/15 06:58:18;;;;;;;4.20;1.58;;;;;;;;;;5111570;28;20449;-65
2023/07/15 07:00:45;;;;;;;7.35;1.95;;;;;;;;;;5108011;28;20044;-65
2023/07/15 07:03:11;;;;;;;3.45;1.70;;;;;;;;;;5107943;28;20052;-65
2023/07/15 07:05:37;;;;;;;5.07;1.77;;;;;;;;;;5111128;28;20036;-65
2023/07/15 07:08:04;;;;;;;4.70;1.92;;;;;;;;;;5109895;28;20085;-65
2023/07/15 07:10:30;;;;;;;5.55;1.83;;;;;;;;;;5111933;28;20108;-65
2023/07/15 07:12:56;;;;;;;4.07;2.10;;;;;;;;;;5108410;28;20082;-65
2023/07/15 07:15:22;;;;;;;4.47;1.92;;;;;;;;;;5111943;28;20103;-65
2023/07/15 07:17:50;;;;;;;5.32;1.40;;;;;;;;;;5110544;27;20397;-64
2023/07/15 07:20:16;;;;;;;4.10;2.10;;;;;;;;;;5113335;27;20542;-65
2023/07/15 07:22:42;;;;;;;4.28;2.25;;;;;;;;;;5107532;27;20031;-66
2023/07/15 07:25:09;;;;;;;5.13;2.22;;;;;;;;;;5121239;27;20118;-66
2023/07/15 07:27:35;;;;;;;6.45;2.60;;;;;;;;;;5110211;27;20071;-65
2023/07/15 07:30:01;;;;;;;4.70;2.28;;;;;;;;;;5110151;27;20060;-66
2023/07/15 07:32:27;;;;;;;5.40;2.28;;;;;;;;;;5114742;27;20044;-66
2023/07/15 07:34:54;;;;;;;5.32;2.42;;;;;;;;;;5111934;28;20040;-66
2023/07/15 07:37:20;;;;;;;4.90;2.33;;;;;;;;;;5115498;28;20483;-65
2023/07/15 07:39:46;;;;;;;9.05;2.97;;;;;;;;;;5115053;28;20051;-66
2023/07/15 07:42:13;;;;;;;6.35;3.00;;;;;;;;;;5113206;28;20479;-66
2023/07/15 07:44:39;;;;;;;5.20;1.85;;;;;;;;;;5103190;27;20038;-66
2023/07/15 07:47:05;;;;;;;8.68;3.00;;;;;;;;;;5113520;28;20059;-66
2023/07/15 07:49:31;;;;;;;6.18;2.53;;;;;;;;;;5113067;27;20076;-66
2023/07/15 07:51:58;;;;;;;5.28;2.25;;;;;;;;;;5115592;28;20128;-66
2023/07/15 07:54:24;;;;;;;4.82;2.08;;;;;;;;;;5113544;28;20442;-66
2023/07/15 07:56:50;;;;;;;6.40;2.45;;;;;;;;;;5116472;27;20105;-66
2023/07/15 07:59:16;;;;;;;4.65;2.10;;;;;;;;;;5131134;27;20502;-72
2023/07/15 08:01:43;;;;;;;6.50;2.00;;;;;;;;;;5113110;28;20043;-66
2023/07/15 08:04:09;;;;;;;7.53;1.92;;;;;;;;;;5117098;27;20035;-66
2023/07/15 08:06:35;;;;;;;4.18;1.90;;;;;;;;;;5114134;27;20093;-66
2023/07/15 08:09:01;;;;;;;5.85;1.63;;;;;;;;;;5114898;27;20559;-65
2023/07/15 08:11:27;;;;;;;7.53;1.80;;;;;;;;;;5115107;28;20080;-66
2023/07/15 08:13:53;;;;;;;3.58;1.58;;;;;;;;;;5116328;27;20055;-66
2023/07/15 08:16:36;;;;;;;3.67;1.25;;;;;;;;;;5114204;27;20097;-66
2023/07/15 08:19:03;;;;;;;7.97;1.60;;;;;;;;;;5113932;27;20069;-65
2023/07/15 08:21:29;;;;;;;4.90;1.50;;;;;;;;;;5112188;27;20154;-66
2023/07/15 08:23:56;;;;;;;3.42;1.38;;;;;;;;;;5113613;28;20101;-67
2023/07/15 08:26:22;;;;;;;5.10;1.77;;;;;;;;;;5112950;27;20058;-67
2023/07/15 08:28:49;;;;;;;6.25;1.60;;;;;;;;;;5112055;28;20476;-67
2023/07/15 08:31:16;;;;;;;5.00;1.40;;;;;;;;;;5114264;27;20050;-66
2023/07/15 08:33:42;;;;;;;6.20;1.30;;;;;;;;;;5114776;28;20451;-67
2023/07/15 08:36:08;;;;;;;4.55;1.60;;;;;;;;;;5112681;27;20104;-71
2023/07/15 08:38:34;;;;;;;4.65;1.55;;;;;;;;;;5140530;27;20447;-66
2023/07/15 08:41:02;;;;;;;4.00;1.42;;;;;;;;;;5122312;27;20039;-66
2023/07/15 08:43:31;;;;;;;3.38;1.20;;;;;;;;;;5113151;27;20075;-67
2023/07/15 08:46:00;;;;;;;5.15;1.48;;;;;;;;;;5119590;27;20407;-66
2023/07/15 08:48:26;;;;;;;6.05;1.70;;;;;;;;;;5108657;28;20395;-67
2023/07/15 08:50:55;;;;;;;6.13;1.45;;;;;;;;;;5108788;28;20073;-67
2023/07/15 08:53:25;;;;;;;3.53;1.40;;;;;;;;;;5113187;28;20052;-67
2023/07/15 08:55:51;;;;;;;4.95;1.60;;;;;;;;;;5111412;28;20046;-66
2023/07/15 08:58:17;;;;;;;5.43;1.40;;;;;;;;;;5113419;28;20070;-66
2023/07/15 09:00:44;;;;;;;4.13;1.52;;;;;;;;;;5112776;28;20092;-66
2023/07/15 09:03:10;;;;;;;3.92;1.40;;;;;;;;;;5114936;27;20392;-67
2023/07/15 09:05:36;;;;;;;5.22;1.40;;;;;;;;;;5113390;28;20046;-67
2023/07/15 09:08:09;;;;;;;3.85;1.40;;;;;;;;;;5111742;27;20052;-66
2023/07/15 09:10:35;;;;;;;3.58;1.25;;;;;;;;;;5110351;28;20551;-64
2023/07/15 09:13:01;;;;;;;5.70;1.38;;;;;;;;;;5112827;28;20127;-67
2023/07/15 09:15:28;;;;;;;5.97;1.73;;;;;;;;;;5112656;28;20499;-67
2023/07/15 09:17:55;;;;;;;8.30;1.30;;;;;;;;;;5113194;28;20054;-66
2023/07/15 09:20:22;;;;;;;3.95;1.30;;;;;;;;;;5113736;28;20048;-67
2023/07/15 09:23:06;;;;;;;6.72;2.00;;;;;;;;;;5113109;27;20051;-67
2023/07/15 09:25:32;;;;;;;5.90;1.83;;;;;;;;;;5100603;28;20040;-67
2023/07/15 09:27:58;;;;;;;5.03;1.80;;;;;;;;;;5113045;27;20044;-66
2023/07/15 09:30:25;;;;;;;5.05;1.40;;;;;;;;;;5107533;27;20108;-67
2023/07/15 09:32:51;;;;;;;5.35;1.52;;;;;;;;;;5110958;27;20043;-67
2023/07/15 09:35:17;;;;;;;3.35;1.15;;;;;;;;;;5112897;27;20040;-67
2023/07/15 09:37:46;;;;;;;5.28;1.10;;;;;;;;;;5114335;27;20187;-67
2023/07/15 09:40:13;;;;;;;5.22;1.65;;;;;;;;;;5112497;27;20073;-67
2023/07/15 09:42:52;;;;;;;6.10;1.55;;;;;;;;;;5113607;28;20059;-66
2023/07/15 09:45:35;;;;;;;4.28;1.60;;;;;;;;;;5113430;28;20054;-67
2023/07/15 09:48:06;;;;;;;3.33;1.38;;;;;;;;;;5112488;28;20547;-67
2023/07/15 09:50:33;;;;;;;3.47;1.42;;;;;;;;;;5111873;27;20058;-67
2023/07/15 09:53:00;;;;;;;5.53;1.50;;;;;;;;;;5109233;28;20132;-66
2023/07/15 09:55:27;;;;;;;3.80;1.50;;;;;;;;;;5111400;27;20040;-67
2023/07/15 09:58:05;;;;;;;4.45;1.65;;;;;;;;;;5094428;28;20051;-66
2023/07/15 10:00:34;;;;;;;5.63;1.67;;;;;;;;;;5110073;27;20130;-66
2023/07/15 10:03:02;;;;;;;5.30;1.70;;;;;;;;;;5104816;28;20495;-66
2023/07/15 10:05:29;;;;;;;6.88;1.92;;;;;;;;;;5106125;28;20388;-66
2023/07/15 10:07:56;;;;;;;5.10;2.22;;;;;;;;;;5111481;27;20050;-66
2023/07/15 10:10:22;;;;;;;3.10;1.30;;;;;;;;;;5111753;28;20066;-66
2023/07/15 10:12:50;;;;;;;5.60;2.15;;;;;;;;;;5110283;27;20501;-67
2023/07/15 10:15:16;;;;;;;3.83;1.45;;;;;;;;;;5110208;28;20044;-66
2023/07/15 10:17:45;;;;;;;3.63;1.50;;;;;;;;;;5111336;28;20047;-66
2023/07/15 10:20:12;;;;;;;4.15;1.50;;;;;;;;;;5111963;27;20511;-66
2023/07/15 10:22:39;;;;;;;5.20;1.63;;;;;;;;;;5111340;27;20097;-66
2023/07/15 10:25:09;;;;;;;4.15;1.30;;;;;;;;;;5112190;28;20032;-66
2023/07/15 10:27:36;;;;;;;6.22;1.52;;;;;;;;;;5111890;28;20046;-66
2023/07/15 10:30:23;;;;;;;3.90;1.45;;;;;;;;;;5111631;28;20050;-66
2023/07/15 10:33:03;;;;;;;4.68;1.63;;;;;;;;;;5112737;28;20104;-66
2023/07/15 10:35:34;;;;;;;7.38;1.58;;;;;;;;;;5118303;27;20051;-66
2023/07/15 10:38:19;;;;;;;4.97;1.27;;;;;;;;;;5103741;27;20052;-66
2023/07/15 10:40:48;;;;;;;4.18;1.40;;;;;;;;;;5101820;28;20067;-66
2023/07/15 10:43:21;;;;;;;6.07;1.60;;;;;;;;;;5111190;28;20406;-66
2023/07/15 10:45:47;;;;;;;;;;;;;;;;;;5109789;27;20391;-66
2023/07/15 10:48:13;;;;;;;5.05;1.00;;;;;;;;;;5111273;28;19968;-67
2023/07/15 10:50:40;;;;;;;4.10;1.40;;;;;;;;;;5109427;28;20048;-66
2023/07/15 10:53:26;;;;;;;3.40;1.33;;;;;;;;;;5110329;28;20043;-67
2023/07/15 10:55:56;;;;;;;5.05;1.33;;;;;;;;;;5111419;28;20939;-65
2023/07/15 10:58:22;;;;;;;4.22;1.20;;;;;;;;;;5103799;28;20062;-66
2023/07/15 11:00:48;;;;;;;5.40;1.45;;;;;;;;;;5107997;28;20051;-66
2023/07/15 11:03:15;;;;;;;2.10;0.98;;;;;;;;;;5109729;28;20046;-66
2023/07/15 11:05:45;;;;;;;2.85;1.10;;;;;;;;;;5110949;28;20225;-66
2023/07/15 11:08:11;;;;;;;3.20;1.20;;;;;;;;;;5112028;28;20043;-66
2023/07/15 11:10:37;;;;;;;4.63;2.05;;;;;;;;;;5109767;28;20435;-66
2023/07/15 11:13:12;;;;;;;2.70;1.40;;;;;;;;;;5111012;28;20135;-66
2023/07/15 11:15:38;;;;;;;4.70;1.20;;;;;;;;;;5111506;28;20036;-66
2023/07/15 11:18:05;;;;;;;3.63;1.40;;;;;;;;;;5109430;28;20042;-66
2023/07/15 11:20:33;;;;;;;3.58;1.10;;;;;;;;;;5109488;28;20043;-66
2023/07/15 11:22:59;;;;;;;3.35;1.33;;;;;;;;;;5111839;28;20083;-66
2023/07/15 11:25:29;;;;;;;4.57;1.15;;;;;;;;;;5109450;28;20047;-67
2023/07/15 11:27:59;;;;;;;3.30;1.00;;;;;;;;;;5111717;28;20172;-66
2023/07/15 11:30:26;;;;;;;5.60;1.30;;;;;;;;;;5110932;28;20055;-66
2023/07/15 11:32:53;;;;;;;3.05;1.15;;;;;;;;;;5110602;28;20428;-66
2023/07/15 11:35:22;;;;;;;3.75;1.30;;;;;;;;;;5111676;28;20081;-66
2023/07/15 11:37:48;;;;;;;4.00;1.63;;;;;;;;;;5110359;28;20051;-66
2023/07/15 11:40:18;;;;;;;4.88;1.30;;;;;;;;;;5120522;28;20059;-66
2023/07/15 11:42:44;;;;;;;4.15;1.13;;;;;;;;;;5110458;28;20052;-66
2023/07/15 11:45:11;;;;;;;3.58;1.27;;;;;;;;;;5109463;28;20557;-66
2023/07/15 11:47:37;;;;;;;3.65;1.50;;;;;;;;;;5107643;28;20051;-66
2023/07/15 11:50:03;;;;;;;4.75;1.45;;;;;;;;;;5112778;28;20100;-66
2023/07/15 11:52:40;;;;;;;3.85;1.30;;;;;;;;;;5110389;28;20043;-66
2023/07/15 11:55:07;;;;;;;4.53;1.23;;;;;;;;;;5111404;28;20047;-66
2023/07/15 11:57:34;;;;;;;3.55;1.20;;;;;;;;;;5110236;28;20051;-66
2023/07/15 12:00:00;;;;;;;3.00;1.10;;;;;;;;;;5107224;28;20425;-66
2023/07/15 12:02:26;;;;;;;3.15;1.15;;;;;;;;;;5108627;28;20089;-66
2023/07/15 12:04:52;;;;;;;4.50;1.65;;;;;;;;;;5112234;28;20048;-66
2023/07/15 12:07:21;;;;;;;3.97;1.05;;;;;;;;;;5113348;28;20104;-66
2023/07/15 12:09:47;;;;;;;5.20;1.23;;;;;;;;;;5115108;27;20143;-66
2023/07/15 12:12:13;;;;;;;3.28;1.25;;;;;;;;;;5112910;28;20044;-66
2023/07/15 12:14:39;;;;;;;3.47;1.17;;;;;;;;;;5114216;28;20376;-66
2023/07/15 12:17:05;;;;;;;3.55;1.48;;;;;;;;;;5114029;28;20086;-66
2023/07/15 12:19:32;;;;;;;5.88;1.38;;;;;;;;;;5114576;27;20511;-66
2023/07/15 12:21:59;;;;;;;2.88;1.10;;;;;;;;;;5113011;28;20036;-66
2023/07/15 12:24:25;;;;;;;4.13;1.10;;;;;;;;;;5115169;27;20062;-66
2023/07/15 12:26:51;;;;;;;5.20;1.45;;;;;;;;;;5114572;28;20479;-66
2023/07/15 12:29:17;;;;;;;3.35;1.25;;;;;;;;;;5114219;28;20075;-66
2023/07/15 12:31:43;;;;;;;8.98;1.70;;;;;;;;;;5113980;28;20047;-66
2023/07/15 12:34:09;;;;;;;4.35;1.55;;;;;;;;;;5113535;27;20058;-66
2023/07/15 12:36:36;;;;;;;2.70;1.30;;;;;;;;;;5114150;28;20112;-66
2023/07/15 12:39:02;;;;;;;5.28;1.40;;;;;;;;;;5114718;28;20554;-66
2023/07/15 12:41:28;;;;;;;5.50;1.55;;;;;;;;;;5113059;28;20451;-66
2023/07/15 12:43:54;;;;;;;7.30;1.52;;;;;;;;;;5112915;28;20032;-66
2023/07/15 12:46:20;;;;;;;3.85;1.10;;;;;;;;;;5114326;28;20070;-66
2023/07/15 12:48:48;;;;;;;3.72;1.42;;;;;;;;;;5111601;28;20083;-66
2023/07/15 12:51:15;;;;;;;4.05;1.65;;;;;;;;;;5113017;28;20437;-66
2023/07/15 12:53:41;;;;;;;3.30;1.30;;;;;;;;;;5112537;27;20043;-66
2023/07/15 12:56:11;;;;;;;4.93;1.70;;;;;;;;;;5094499;28;20135;-66
2023/07/15 12:58:37;;;;;;;3.17;1.60;;;;;;;;;;5114366;28;20073;-66
2023/07/15 13:01:04;;;;;;;4.35;1.48;;;;;;;;;;5112266;28;20043;-66
2023/07/15 13:03:30;;;;;;;4.00;1.50;;;;;;;;;;5108334;28;20044;-66
2023/07/15 13:05:56;;;;;;;5.32;1.60;;;;;;;;;;5111279;28;20050;-66
2023/07/15 13:08:22;;;;;;;6.82;1.90;;;;;;;;;;5113985;28;20043;-66
2023/07/15 13:10:49;;;;;;;5.28;1.80;;;;;;;;;;5108228;28;20043;-66
2023/07/15 13:13:15;;;;;;;5.03;1.80;;;;;;;;;;5099775;27;20050;-66
2023/07/15 13:15:44;;;;;;;3.85;1.38;;;;;;;;;;5112381;28;20096;-66
2023/07/15 13:18:10;;;;;;;4.20;1.42;;;;;;;;;;5111682;28;20059;-66
2023/07/15 13:20:36;;;;;;;4.97;1.70;;;;;;;;;;5111713;27;20079;-66
2023/07/15 13:23:02;;;;;;;6.00;2.10;;;;;;;;;;5111799;28;20089;-66
2023/07/15 13:25:29;;;;;;;3.45;1.42;;;;;;;;;;5111558;27;20509;-66
2023/07/15 13:27:55;;;;;;;4.57;1.80;;;;;;;;;;5113681;27;20043;-66
2023/07/15 13:30:21;;;;;;;6.28;1.48;;;;;;;;;;5112567;27;20042;-66
2023/07/15 13:32:47;;;;;;;3.92;1.70;;;;;;;;;;5112505;28;20047;-67
2023/07/15 13:35:13;;;;;;;9.90;2.33;;;;;;;;;;5112948;28;20081;-66
2023/07/15 13:37:40;;;;;;;3.88;1.50;;;;;;;;;;5113335;28;20044;-67
2023/07/15 13:40:06;;;;;;;5.60;1.70;;;;;;;;;;5112014;27;20035;-66
2023/07/15 13:42:32;;;;;;;3.28;1.50;;;;;;;;;;5112077;28;20048;-66
2023/07/15 13:44:58;;;;;;;4.25;1.65;;;;;;;;;;5112590;28;20321;-66
2023/07/15 13:47:25;;;;;;;5.47;1.63;;;;;;;;;;5099341;27;20100;-66
2023/07/15 13:49:51;;;;;;;5.00;1.52;;;;;;;;;;5115287;27;20144;-66
2023/07/15 13:52:17;;;;;;;5.55;1.60;;;;;;;;;;5110909;27;20506;-67
2023/07/15 13:54:44;;;;;;;3.58;1.40;;;;;;;;;;5112685;28;20071;-67
2023/07/15 13:57:10;;;;;;;3.22;1.50;;;;;;;;;;5112988;28;20142;-66
2023/07/15 13:59:36;;;;;;;4.63;1.73;;;;;;;;;;5109401;27;20152;-67
2023/07/15 14:02:03;;;;;;;4.72;1.77;;;;;;;;;;5110915;27;20075;-66
2023/07/15 14:04:29;;;;;;;3.58;1.40;;;;;;;;;;5113027;28;20047;-66
2023/07/15 14:06:55;;;;;;;4.22;1.90;;;;;;;;;;5111532;27;20171;-66
2023/07/15 14:09:21;;;;;;;3.72;1.60;;;;;;;;;;5109655;27;20118;-66
2023/07/15 14:11:47;;;;;;;3.80;1.70;;;;;;;;;;5111565;28;20035;-66
2023/07/15 14:14:17;;;;;;;6.32;1.60;;;;;;;;;;5112056;28;20090;-66
2023/07/15 14:16:43;;;;;;;3.63;1.70;;;;;;;;;;5112460;28;20528;-66
2023/07/15 14:19:09;;;;;;;8.13;1.90;;;;;;;;;;5112571;27;20451;-66
2023/07/15 14:21:35;;;;;;;4.68;1.58;;;;;;;;;;5111090;28;20046;-66
2023/07/15 14:24:03;;;;;;;4.00;1.63;;;;;;;;;;5112955;28;20043;-66
2023/07/15 14:26:30;;;;;;;3.83;1.70;;;;;;;;;;5111568;28;20054;-66
2023/07/15 14:28:57;;;;;;;5.30;1.63;;;;;;;;;;5113259;28;20100;-66
2023/07/15 14:31:23;;;;;;;4.20;1.63;;;;;;;;;;5111411;28;20043;-66
2023/07/15 14:33:53;;;;;;;4.50;1.48;;;;;;;;;;5110995;28;20040;-66
2023/07/15 14:36:19;;;;;;;3.75;1.63;;;;;;;;;;5110316;28;20048;-66
2023/07/15 14:38:46;;;;;;;5.78;2.20;;;;;;;;;;5109909;28;20522;-66
2023/07/15 14:41:12;;;;;;;5.38;1.67;;;;;;;;;;5110145;28;20051;-67
2023/07/15 14:43:38;;;;;;;3.67;1.60;;;;;;;;;;5110129;28;20048;-67